M I D A S
Marine Information and Data Acquisition System
Tripno 1942 of the Zeeleeuw from 2010-08-20 08:00:00 to 2010-08-20 17:00:00
Back to CruiseResearch ActivitiesStationsMapUnderway DataData graphs

EquipmentUnitsComment
TimeDGPSUTC
LatitudeDGPSDM.mWGS84
LongitudeDGPSDM.mWGS84
HeadingGyrodeg 
SOGDGPSknotsSpeed over ground
COGDGPSdegCourse over ground
DepthEcho soundermeters200 kHz
Missing or incorrect values are displayed as -999
Navigation data collected by the RV Zeeleeuw from 2010-08-20 08:00:00 to 2010-08-20 17:00:00
Time Latitude Longitude Heading SOG COG Depth
2010-08-20 08:02:10 51°22.783 2°43.584 99.2 2.29 71 -999
2010-08-20 08:04:10 51°22.803 2°43.68 104 1.8 69 -999
2010-08-20 08:06:10 51°22.828 2°43.753 107.5 1.5 57 -999
2010-08-20 08:08:10 51°22.854 2°43.833 103.7 2.29 74 -999
2010-08-20 08:10:10 51°22.962 2°43.818 281.6 5.2 287 -999
2010-08-20 08:12:10 51°22.863 2°43.551 229.5 4.59 228 -999
2010-08-20 08:14:10 51°22.797 2°43.509 202.4 1.39 175 -999
2010-08-20 08:16:10 51°22.782 2°43.53 199.5 0.59 56 -999
2010-08-20 08:18:10 51°22.805 2°43.53 264.5 1.1 289 -999
2010-08-20 08:20:10 51°22.827 2°43.512 262.3 0.69 347 -999
2010-08-20 08:22:10 51°22.85 2°43.524 259.8 0.9 23 -999
2010-08-20 08:24:10 51°22.874 2°43.55 260.6 0.9 38 -999
2010-08-20 08:26:10 51°22.898 2°43.579 257.3 1 36 -999
2010-08-20 08:28:10 51°22.924 2°43.61 261.1 0.9 39 -999
2010-08-20 08:30:10 51°22.951 2°43.644 260.8 1.1 41 -999
2010-08-20 08:32:10 51°22.981 2°43.684 266 1.19 42 -999
2010-08-20 08:34:10 51°22.947 2°43.619 221.9 3.5 218 -999
2010-08-20 08:36:10 51°22.842 2°43.548 197.5 2.39 181 -999
2010-08-20 08:38:10 51°22.8 2°43.584 184.4 1.1 127 -999
2010-08-20 08:40:10 51°22.795 2°43.644 171.1 1.3 85 -999
2010-08-20 08:42:10 51°22.807 2°43.71 167.4 1.39 67 -999
2010-08-20 08:44:10 51°22.832 2°43.777 153.5 1.5 51 -999
2010-08-20 08:46:10 51°22.795 2°43.787 239.4 2.79 245 -999
2010-08-20 08:48:10 51°22.744 2°43.597 234.9 2.7 236 -999
2010-08-20 08:50:10 51°22.73 2°43.578 225 0.1 231 -999
2010-08-20 08:52:10 51°22.739 2°43.596 228.6 0.69 49 -999
2010-08-20 08:54:10 51°22.759 2°43.628 228.6 0.9 44 -999
2010-08-20 08:56:10 51°22.784 2°43.664 232.9 1.1 38 -999
2010-08-20 08:58:10 51°22.813 2°43.704 240.8 1.19 34 -999
2010-08-20 09:00:10 51°22.906 2°43.679 5.2 4.5 20 -999
2010-08-20 09:02:10 51°23.003 2°43.818 34.1 4.59 38 -999
2010-08-20 09:04:10 51°23.364 2°43.9 2.7 12.3 7 -999
2010-08-20 09:06:10 51°23.662 2°44.18 66.5 8.5 65 -999
2010-08-20 09:08:10 51°23.855 2°44.496 30 8.19 32 -999
2010-08-20 09:10:10 51°24.013 2°44.476 273.5 3.7 281 -999
2010-08-20 09:12:10 51°23.749 2°44.246 208.4 11.8 206 -999
2010-08-20 09:14:10 51°23.398 2°43.96 208.8 11.8 206 -999
2010-08-20 09:16:10 51°23.159 2°43.853 185.5 5.2 173 -999
2010-08-20 09:18:10 51°23.022 2°43.836 215 3.6 208 -999
2010-08-20 09:20:10 51°22.921 2°43.742 217.3 3.6 211 -999
2010-08-20 09:22:10 51°22.827 2°43.623 227.4 3.6 223 -999
2010-08-20 09:24:10 51°22.774 2°43.512 231.5 1.8 235 -999
2010-08-20 09:26:10 51°22.76 2°43.48 230.4 0.29 271 -999
2010-08-20 09:28:10 51°22.784 2°43.507 238.5 1.3 38 -999
2010-08-20 09:30:10 51°22.816 2°43.543 238.4 0.8 27 -999
2010-08-20 09:32:10 51°22.797 2°43.524 219.8 1.69 211 -999
2010-08-20 09:34:10 51°22.734 2°43.407 244.8 3.5 252 -999
2010-08-20 09:36:10 51°22.867 2°43.347 347.6 5.9 359 -999
2010-08-20 09:38:10 51°22.985 2°43.498 64 2.89 58 -999
2010-08-20 09:40:10 51°23.022 2°43.607 97 2 64 -999
2010-08-20 09:42:10 51°23.305 2°44.034 42.2 14.69 44 -999
2010-08-20 09:44:10 51°23.709 2°44.302 6.5 10.59 15 -999
2010-08-20 09:46:10 51°23.895 2°44.555 22.8 6.29 28 -999
2010-08-20 09:48:10 51°24.007 2°44.518 280 2.1 315 -999
2010-08-20 09:50:10 51°24.036 2°44.489 256.3 0.8 339 -999
2010-08-20 09:52:10 51°24.036 2°44.451 225 1 223 -999
2010-08-20 09:54:10 51°23.996 2°44.403 224.4 1.69 223 -999
2010-08-20 09:56:10 51°23.95 2°44.352 220.9 1.39 208 -999
2010-08-20 09:58:10 51°23.928 2°44.328 228.6 0.5 224 -999
2010-08-20 10:00:10 51°23.924 2°44.315 239.3 0.29 305 -999
2010-08-20 10:02:10 51°23.941 2°44.327 244 0.9 27 -999
2010-08-20 10:04:10 51°23.974 2°44.363 257 1.3 40 -999
2010-08-20 10:06:10 51°23.991 2°44.382 223.1 0.2 50 -999
2010-08-20 10:08:10 51°23.959 2°44.352 220 1.69 211 -999
2010-08-20 10:10:10 51°23.929 2°44.329 229.3 0.4 234 -999
2010-08-20 10:12:10 51°23.917 2°44.304 233 0.4 261 -999
2010-08-20 10:14:10 51°23.925 2°44.318 227.5 0.69 50 -999
2010-08-20 10:16:10 51°23.949 2°44.359 225.4 1.19 43 -999
2010-08-20 10:18:10 51°23.972 2°44.396 226.6 0.29 12 -999
2010-08-20 10:20:10 51°23.943 2°44.345 225.5 1.6 227 -999
2010-08-20 10:22:10 51°23.93 2°44.318 233.9 0.29 278 -999
2010-08-20 10:24:10 51°23.94 2°44.336 230 0.69 58 -999
2010-08-20 10:26:10 51°23.967 2°44.369 247.3 1.1 44 -999
2010-08-20 10:28:10 51°23.987 2°44.367 242.8 0.9 273 -999
2010-08-20 10:30:10 51°23.941 2°44.323 209.5 1.3 185 -999
2010-08-20 10:32:10 51°23.934 2°44.318 244.8 0.59 319 -999
2010-08-20 10:34:10 51°23.912 2°44.311 218 0.69 198 -999
2010-08-20 10:36:10 51°23.916 2°44.316 230.8 0.59 21 -999
2010-08-20 10:38:10 51°23.939 2°44.35 227 1.1 51 -999
2010-08-20 10:40:10 51°23.969 2°44.393 232.3 1.3 42 -999
2010-08-20 10:42:10 51°23.963 2°44.379 227.9 1 227 -999
2010-08-20 10:44:10 51°23.933 2°44.328 229.3 1.1 230 -999
2010-08-20 10:46:10 51°23.921 2°44.308 234.5 0.2 249 -999
2010-08-20 10:48:10 51°23.926 2°44.333 217.4 0.8 65 -999
2010-08-20 10:50:10 51°23.943 2°44.374 226.5 0.5 46 -999
2010-08-20 10:52:10 51°24.129 2°44.3 359.1 11.9 6 -999
2010-08-20 10:54:10 51°24.558 2°44.379 7.4 13.19 12 -999
2010-08-20 10:56:10 51°24.837 2°44.479 357 6.2 8 -999
2010-08-20 10:58:10 51°24.96 2°44.456 302 2.5 339 -999
2010-08-20 11:00:10 51°24.978 2°44.399 244 1.1 272 -999
2010-08-20 11:02:10 51°24.955 2°44.33 222.9 1.69 218 -999
2010-08-20 11:04:10 51°24.928 2°44.305 228.8 0.8 238 -999
2010-08-20 11:06:10 51°24.912 2°44.292 225 0.2 179 -999
2010-08-20 11:08:10 51°24.925 2°44.306 238.4 0.69 37 -999
2010-08-20 11:10:10 51°24.922 2°44.25 240.6 3 246 -999
2010-08-20 11:12:10 51°24.84 2°44.061 230.3 4.7 231 -999
2010-08-20 11:14:10 51°24.749 2°43.861 229.4 4.5 232 -999
2010-08-20 11:16:10 51°24.702 2°43.761 224.4 1.39 221 -999
2010-08-20 11:18:10 51°24.684 2°43.725 229.4 0.8 231 -999
2010-08-20 11:20:10 51°24.671 2°43.708 216.9 0.29 125 -999
2010-08-20 11:22:10 51°24.675 2°43.743 205 0.9 68 -999
2010-08-20 11:24:10 51°24.693 2°43.796 210.1 1.19 57 -999
2010-08-20 11:26:10 51°24.699 2°43.8 245.5 1 262 -999
2010-08-20 11:28:10 51°24.688 2°43.728 228.5 1.1 239 -999
2010-08-20 11:30:10 51°24.669 2°43.706 212.8 0.59 159 -999
2010-08-20 11:32:10 51°24.669 2°43.734 214 0.69 74 -999
2010-08-20 11:34:10 51°24.682 2°43.775 219.3 1 57 -999
2010-08-20 11:36:10 51°24.692 2°43.757 258.1 1.5 278 -999
2010-08-20 11:38:10 51°24.684 2°43.719 218.9 0.4 184 -999
2010-08-20 11:40:10 51°24.673 2°43.708 227.3 0.2 237 -999
2010-08-20 11:42:10 51°24.68 2°43.728 231.3 0.8 54 -999
2010-08-20 11:44:10 51°24.699 2°43.779 231.3 1.39 61 -999
2010-08-20 11:46:10 51°24.713 2°43.825 230.1 0.4 218 -999
2010-08-20 11:48:10 51°24.701 2°43.74 231 1.3 230 -999
2010-08-20 11:50:10 51°24.681 2°43.729 233.6 0.4 250 -999
2010-08-20 11:52:10 51°24.671 2°43.725 200.4 0.8 133 -999
2010-08-20 11:54:10 51°24.669 2°43.782 194.5 1.1 83 -999
2010-08-20 11:56:10 51°24.673 2°43.838 204.4 0.8 138 -999
2010-08-20 11:58:10 51°24.692 2°43.754 272 2.6 294 -999
2010-08-20 13:00:10 51°22.866 2°43.556 224.6 3.79 225 -999
2010-08-20 13:02:10 51°22.812 2°43.415 277.1 3.7 284 -999
2010-08-20 13:04:10 51°22.861 2°43.398 344.8 1.39 5 -999
2010-08-20 13:06:10 51°22.904 2°43.395 325.1 2.1 340 -999
2010-08-20 13:08:10 51°22.835 2°43.344 135 2 123 -999
2010-08-20 13:10:10 51°22.832 2°43.429 115.7 1.6 91 -999
2010-08-20 13:12:10 51°22.826 2°43.488 143.5 0.9 102 -999
2010-08-20 13:14:10 51°22.823 2°43.528 163.4 0.69 90 -999
2010-08-20 13:16:10 51°22.827 2°43.559 180.8 0.69 79 -999
2010-08-20 13:18:10 51°22.835 2°43.593 177.9 0.59 67 -999
2010-08-20 13:20:10 51°22.845 2°43.631 169.5 0.8 68 -999
2010-08-20 13:22:10 51°22.856 2°43.668 164.5 0.8 66 -999
2010-08-20 13:24:10 51°22.811 2°43.637 237.4 2.89 239 -999
2010-08-20 13:26:10 51°22.807 2°43.496 276.8 1.89 286 -999
2010-08-20 13:28:10 51°22.831 2°43.482 324.1 0.8 14 -999
2010-08-20 13:30:10 51°22.862 2°43.495 339 1.5   -999
2010-08-20 13:32:10 51°22.888 2°43.407 249.5 2.2 253 -999
2010-08-20 13:34:10 51°22.795 2°43.409 164 3.29 158 -999
2010-08-20 13:36:10 51°22.743 2°43.482 156.6 1.5 140 -999
2010-08-20 13:38:10 51°22.722 2°43.522 171 0.69 121 -999
2010-08-20 13:40:10 51°22.718 2°43.557 178.3 0.69 88 -999
2010-08-20 13:42:10 51°22.725 2°43.597 167.1 0.69 64 -999
2010-08-20 13:44:10 51°22.739 2°43.634 155.8 0.9 53 -999
2010-08-20 13:46:10 51°22.75 2°43.674 150.6 1.19 112 -999
2010-08-20 13:48:10 51°22.695 2°43.589 268.6 3.39 276 -999
2010-08-20 13:50:10 51°22.753 2°43.548 332.1 1.3 2 -999
2010-08-20 13:52:10 51°22.784 2°43.563 327.1 0.9 27 -999
2010-08-20 13:54:10 51°22.803 2°43.593 344 0.8 59 -999
2010-08-20 13:56:10 51°22.829 2°43.621 344.1 1.89 4 -999
2010-08-20 13:58:10 51°22.834 2°43.496 225.8 2.79 223 -999
2010-08-20 14:00:10 51°22.787 2°43.484 203.3 0.9 166 -999
2010-08-20 14:02:10 51°22.776 2°43.512 197.5 0.8 99 -999
2010-08-20 14:04:10 51°22.784 2°43.554 174.8 0.9 66 -999
2010-08-20 14:06:10 51°22.742 2°43.558 215 2.39 208 -999
2010-08-20 14:08:10 51°22.721 2°43.493 250.4 0.59 259 -999
2010-08-20 14:10:10 51°22.723 2°43.51 226.5 0.8 68 -999
2010-08-20 14:12:10 51°22.745 2°43.548 179.9 1 35 -999
2010-08-20 14:14:10 51°22.695 2°43.472 258 2.39 262 -999
2010-08-20 14:16:10 51°22.701 2°43.491 330.1 0.5 61 -999
2010-08-20 14:18:10 51°22.702 2°43.52 5.5 0.8 90 -999
2010-08-20 14:20:10 51°22.707 2°43.548 10.8 0.5 65 -999
2010-08-20 14:22:10 51°22.715 2°43.572 2.8 0.5 57 -999
2010-08-20 14:24:10 51°22.725 2°43.597 357 0.5 57 -999
2010-08-20 14:26:10 51°22.731 2°43.623 353.1 0.5 75 -999
2010-08-20 14:28:10 51°22.734 2°43.648 359 0.4 82 -999
2010-08-20 14:30:10 51°22.74 2°43.672 357.8 0.69 37 -999
2010-08-20 14:32:10 51°22.753 2°43.671 352.6 3.79 349 -999
2010-08-20 14:34:10 51°22.709 2°43.51 211.3 0.69 174 -999
2010-08-20 14:36:10 51°22.702 2°43.534 173.3 0.5 97 -999
2010-08-20 14:38:10 51°22.703 2°43.556 160.1 0.4 75 -999
2010-08-20 14:40:10 51°22.705 2°43.576 166.5 0.4 74 -999
2010-08-20 14:42:10 51°22.676 2°43.685 94.7 3 94 -999
2010-08-20 14:44:10 51°22.675 2°43.801 94 1.89 93 -999
2010-08-20 14:46:10 51°22.62 2°43.961 127.4 8.5 128 -999
2010-08-20 14:48:10 51°22.317 2°44.418 139.4 13.09 135 -999
2010-08-20 14:50:10 51°21.974 2°44.829 143.5 12.9 147 -999
2010-08-20 14:52:10 51°21.622 2°45.216 144.9 12.9 139 -999
2010-08-20 14:54:10 51°21.263 2°45.582 144.5 12.8 152 -999
2010-08-20 14:56:10 51°20.908 2°45.945 143.5 12.9 144 -999
2010-08-20 14:58:10 51°20.578 2°46.381 132.5 12.9 132 -999
2010-08-20 15:00:10 51°20.298 2°46.885 129 12.69 128 -999
2010-08-20 15:02:10 51°19.996 2°47.369 132.4 13 129 -999
2010-08-20 15:04:10 51°19.693 2°47.849 132.8 12.59 134 -999
2010-08-20 15:06:10 51°19.388 2°48.326 133 12.8 135 -999
2010-08-20 15:08:10 51°19.081 2°48.802 130.6 12.69 137 -999
2010-08-20 15:10:10 51°18.783 2°49.271 131.6 13.09 134 -999
2010-08-20 15:12:10 51°18.48 2°49.729 132.9 12.9 141 -999
2010-08-20 15:14:10 51°18.167 2°50.198 132.8 12.9 137 -999
2010-08-20 15:16:10 51°17.86 2°50.665 134.3 12.69 134 -999
2010-08-20 15:18:10 51°17.556 2°51.144 132 12.69 140 -999
2010-08-20 15:20:10 51°17.242 2°51.613 139.5 12.8 139 -999
2010-08-20 15:22:10 51°16.891 2°52.018 137.3 13 137 -999
2010-08-20 15:24:10 51°16.559 2°52.452 136.4 12.8 140 -999
2010-08-20 15:26:10 51°16.225 2°52.879 135 13 142 -999
2010-08-20 15:28:10 51°15.898 2°53.324 135.9 13 138 -999
2010-08-20 15:30:10 51°15.567 2°53.768 135.9 12.9 141 -999
2010-08-20 15:32:10 51°15.266 2°54.168 137 12.9 144 -999